createdAt,value
2023-01-26T00:02:14.706Z,53.30
2023-01-26T00:04:45.590Z,55.40
2023-01-26T00:07:21.878Z,56.30
2023-01-26T00:09:56.408Z,57.50
2023-01-26T00:12:34.783Z,55.60
2023-01-26T00:15:12.970Z,54.30
2023-01-26T00:17:54.450Z,57.20
2023-01-26T00:21:39.825Z,55.40
2023-01-26T00:24:39.993Z,51.80
2023-01-26T00:27:13.308Z,55.30
2023-01-26T00:29:51.675Z,53.90
2023-01-26T00:32:24.172Z,56.10
2023-01-26T00:34:55.008Z,56.30
2023-01-26T00:37:32.986Z,54.90
2023-01-26T00:40:09.815Z,56.30
2023-01-26T00:42:43.497Z,55.60
2023-01-26T00:45:34.803Z,54.10
2023-01-26T00:48:11.758Z,54.60
2023-01-26T00:50:47.458Z,56.20
2023-01-26T00:53:20.751Z,54.70
2023-01-26T00:56:07.533Z,53.90
2023-01-26T00:58:42.152Z,53.80
2023-01-26T01:01:23.516Z,55.00
2023-01-26T01:04:08.181Z,56.60
2023-01-26T01:06:40.477Z,54.50
2023-01-26T01:09:22.000Z,57.20
2023-01-26T01:12:01.586Z,56.50
2023-01-26T01:14:40.431Z,56.60
2023-01-26T01:17:15.638Z,59.00
2023-01-26T01:19:53.948Z,57.30
2023-01-26T01:22:55.107Z,54.90
2023-01-26T01:25:46.886Z,62.10
2023-01-26T01:28:20.729Z,57.20
2023-01-26T01:30:59.985Z,58.00
2023-01-26T01:33:36.971Z,57.30
2023-01-26T01:36:17.127Z,56.50
2023-01-26T01:38:55.252Z,55.40
2023-01-26T01:41:44.789Z,53.20
2023-01-26T01:44:38.798Z,55.50
2023-01-26T01:47:26.012Z,56.00
2023-01-26T01:50:05.523Z,57.40
2023-01-26T01:52:53.610Z,53.80
2023-01-26T01:55:30.648Z,53.90
2023-01-26T01:58:17.841Z,54.80
2023-01-26T02:00:50.855Z,57.90
2023-01-26T02:03:34.071Z,52.20
2023-01-26T02:06:46.456Z,54.60
2023-01-26T02:09:37.263Z,52.40
2023-01-26T02:12:11.629Z,52.10
2023-01-26T02:14:45.514Z,51.60
2023-01-26T02:17:22.468Z,50.10
2023-01-26T02:20:13.750Z,52.30
2023-01-26T02:23:01.436Z,54.50
2023-01-26T02:25:41.800Z,52.40
2023-01-26T02:28:12.926Z,53.20
2023-01-26T02:30:46.933Z,52.30
2023-01-26T02:33:24.262Z,54.00
2023-01-26T02:36:07.733Z,56.30
2023-01-26T02:39:20.342Z,54.50
2023-01-26T02:42:17.380Z,51.70
2023-01-26T02:44:54.054Z,55.50
2023-01-26T02:47:45.602Z,54.00
2023-01-26T02:50:20.269Z,50.00
2023-01-26T02:52:52.010Z,53.40
2023-01-26T02:55:30.802Z,52.10
2023-01-26T02:58:05.434Z,51.60
2023-01-26T03:00:47.598Z,52.30
2023-01-26T03:03:44.539Z,50.60
2023-01-26T03:06:29.716Z,52.20
2023-01-26T03:09:06.563Z,50.60
2023-01-26T03:11:44.350Z,53.80
2023-01-26T03:14:19.279Z,53.80
2023-01-26T03:16:52.777Z,53.80
2023-01-26T03:19:42.149Z,53.40
2023-01-26T03:22:31.526Z,56.40
2023-01-26T03:25:21.235Z,54.10
2023-01-26T03:27:54.911Z,52.90
2023-01-26T03:30:34.312Z,49.00
2023-01-26T03:33:09.823Z,55.60
2023-01-26T03:35:54.327Z,56.60
2023-01-26T03:38:42.590Z,54.40
2023-01-26T03:41:47.792Z,51.00
2023-01-26T03:44:44.361Z,54.10
2023-01-26T03:47:33.244Z,54.80
2023-01-26T03:50:41.663Z,52.60
2023-01-26T03:53:39.597Z,56.90
2023-01-26T03:56:23.755Z,54.20
2023-01-26T03:59:26.962Z,53.20
2023-01-26T04:02:29.953Z,53.40
2023-01-26T04:05:23.994Z,54.00
2023-01-26T04:08:23.115Z,57.90
2023-01-26T04:11:15.500Z,53.50
2023-01-26T04:14:07.721Z,58.00
2023-01-26T04:17:05.252Z,57.30
2023-01-26T04:19:57.117Z,57.90
2023-01-26T04:22:45.651Z,61.80
2023-01-26T04:25:22.317Z,57.00
2023-01-26T04:27:58.408Z,57.50
2023-01-26T04:30:42.042Z,55.40
2023-01-26T04:33:17.590Z,58.40
2023-01-26T04:35:58.868Z,55.40
2023-01-26T04:38:40.315Z,56.80
2023-01-26T04:41:15.840Z,56.50
2023-01-26T04:43:57.945Z,56.80
2023-01-26T04:46:37.749Z,58.00
2023-01-26T04:49:19.025Z,57.40
2023-01-26T04:51:59.946Z,55.60
2023-01-26T04:54:47.473Z,60.10
2023-01-26T04:57:21.464Z,58.20
2023-01-26T05:00:05.383Z,59.90
2023-01-26T05:02:44.273Z,60.60
2023-01-26T05:05:19.035Z,59.90
2023-01-26T05:07:54.220Z,64.70
2023-01-26T05:10:29.401Z,59.30
2023-01-26T05:13:26.635Z,58.90
2023-01-26T05:16:24.308Z,62.70
2023-01-26T05:19:52.521Z,60.60
2023-01-26T05:26:09.630Z,59.10
2023-01-26T05:32:19.500Z,72.10
2023-01-26T05:35:05.724Z,60.10
2023-01-26T05:37:51.214Z,71.70
2023-01-26T05:40:32.119Z,69.80
2023-01-26T05:43:34.073Z,64.40
2023-01-26T05:46:53.004Z,60.80
2023-01-26T05:49:52.280Z,64.60
2023-01-26T05:52:59.708Z,67.90
2023-01-26T05:55:52.991Z,65.10
2023-01-26T05:58:41.384Z,61.80
2023-01-26T06:01:21.807Z,70.40
2023-01-26T06:04:12.847Z,70.50
2023-01-26T06:07:13.817Z,85.90
2023-01-26T06:10:05.478Z,68.70
2023-01-26T06:13:24.872Z,67.40
2023-01-26T06:16:22.261Z,65.20
2023-01-26T06:19:08.566Z,68.50
2023-01-26T06:21:57.705Z,62.90
2023-01-26T06:24:47.458Z,63.60
2023-01-26T06:27:31.527Z,65.50
2023-01-26T06:30:22.862Z,63.30
2023-01-26T06:33:12.490Z,63.00
2023-01-26T06:36:05.250Z,63.90
2023-01-26T06:38:56.691Z,69.40
2023-01-26T06:41:34.545Z,73.20
2023-01-26T06:44:23.960Z,68.70
2023-01-26T06:47:11.575Z,68.40
2023-01-26T06:49:56.011Z,65.10
2023-01-26T06:52:52.301Z,73.00
2023-01-26T06:55:54.038Z,61.30
2023-01-26T06:58:40.876Z,63.00
2023-01-26T07:04:10.056Z,65.10
2023-01-26T07:06:59.518Z,65.00
2023-01-26T07:09:32.490Z,64.00
2023-01-26T07:12:19.826Z,67.30
2023-01-26T07:14:58.686Z,74.40
2023-01-26T07:17:53.272Z,73.20
2023-01-26T07:20:49.498Z,64.80
2023-01-26T07:23:35.118Z,68.60
2023-01-26T07:26:35.179Z,67.70
2023-01-26T07:29:30.871Z,67.90
2023-01-26T07:32:06.965Z,65.10
2023-01-26T07:34:49.984Z,63.30
2023-01-26T07:37:20.615Z,60.70
2023-01-26T07:39:59.224Z,63.00
2023-01-26T07:42:42.489Z,65.00
2023-01-26T07:45:56.639Z,72.00
2023-01-26T07:48:33.668Z,69.20
2023-01-26T07:51:19.203Z,74.50
2023-01-26T07:54:12.777Z,68.70
2023-01-26T07:56:57.772Z,69.80
2023-01-26T07:59:40.495Z,71.70
2023-01-26T08:02:27.111Z,70.70
2023-01-26T08:05:12.124Z,68.20
2023-01-26T08:08:05.515Z,64.30
2023-01-26T08:10:46.491Z,60.40
2023-01-26T08:13:45.831Z,58.80
2023-01-26T08:16:22.033Z,60.90
2023-01-26T08:18:55.605Z,61.40
2023-01-26T08:21:37.976Z,57.40
2023-01-26T08:24:35.092Z,55.30
2023-01-26T08:27:16.133Z,56.80
2023-01-26T08:30:00.216Z,59.50
2023-01-26T08:32:31.096Z,55.90
2023-01-26T08:35:05.855Z,57.40
2023-01-26T08:37:45.982Z,57.90
2023-01-26T08:40:20.439Z,70.60
2023-01-26T08:43:04.803Z,55.60
2023-01-26T08:45:42.891Z,60.70
2023-01-26T08:48:24.347Z,67.50
2023-01-26T08:51:02.105Z,57.90
2023-01-26T08:53:37.708Z,60.40
2023-01-26T08:56:11.999Z,67.40
2023-01-26T08:58:56.663Z,56.50
2023-01-26T09:01:29.800Z,57.30
2023-01-26T09:04:07.669Z,57.00
2023-01-26T09:06:38.184Z,58.60
2023-01-26T09:09:13.424Z,62.80
2023-01-26T09:11:51.349Z,67.60
2023-01-26T09:14:28.943Z,59.80
2023-01-26T09:17:02.817Z,50.50
2023-01-26T09:19:43.078Z,53.20
2023-01-26T09:22:46.878Z,51.50
2023-01-26T09:25:30.227Z,49.70
2023-01-26T09:28:07.214Z,50.50
2023-01-26T09:30:39.428Z,47.50
2023-01-26T09:33:19.419Z,52.00
2023-01-26T09:35:53.797Z,50.00
2023-01-26T09:38:30.608Z,47.90
2023-01-26T09:41:41.655Z,40.30
2023-01-26T09:44:26.886Z,43.70
2023-01-26T09:47:12.798Z,42.10
2023-01-26T09:50:16.352Z,45.00
2023-01-26T09:53:07.360Z,43.70
2023-01-26T09:55:42.225Z,44.30
2023-01-26T09:58:36.424Z,46.40
2023-01-26T10:01:17.626Z,45.40
2023-01-26T10:04:03.154Z,44.80
2023-01-26T10:06:36.829Z,40.20
2023-01-26T10:09:49.619Z,39.60
2023-01-26T10:12:34.689Z,40.10
2023-01-26T10:15:27.834Z,37.30
2023-01-26T10:18:02.915Z,41.70
2023-01-26T10:20:49.804Z,51.00
2023-01-26T10:23:34.330Z,44.60
2023-01-26T10:26:22.887Z,97.70
2023-01-26T10:28:53.636Z,70.30
2023-01-26T10:31:35.676Z,60.70
2023-01-26T10:34:08.443Z,43.80
2023-01-26T10:36:37.939Z,46.00
2023-01-26T10:39:15.642Z,51.10
2023-01-26T10:42:03.679Z,45.30
2023-01-26T10:44:39.597Z,38.30
2023-01-26T10:47:23.823Z,40.30
2023-01-26T10:50:24.252Z,42.30
2023-01-26T10:53:32.623Z,43.10
2023-01-26T10:56:20.670Z,40.80
2023-01-26T10:59:02.173Z,41.50
2023-01-26T11:01:52.632Z,43.60
2023-01-26T11:04:23.537Z,39.90
2023-01-26T11:06:58.123Z,38.40
2023-01-26T11:09:31.962Z,44.80
2023-01-26T11:14:38.131Z,44.20
2023-01-26T11:17:24.012Z,47.00
2023-01-26T11:20:42.200Z,44.90
2023-01-26T11:23:58.940Z,42.50
2023-01-26T11:27:22.953Z,46.90
2023-01-26T11:30:04.186Z,45.70
2023-01-26T11:33:00.430Z,44.90
2023-01-26T11:36:13.979Z,45.80
2023-01-26T11:42:07.587Z,44.00
2023-01-26T11:45:22.229Z,41.50
2023-01-26T11:48:25.179Z,44.20
2023-01-26T11:51:05.657Z,43.20
2023-01-26T11:54:50.946Z,49.60
2023-01-26T11:57:37.933Z,44.40
2023-01-26T12:00:34.375Z,45.10
2023-01-26T12:03:13.310Z,40.90
2023-01-26T12:05:52.677Z,41.60
2023-01-26T12:08:44.102Z,47.10
2023-01-26T12:11:49.037Z,43.10
2023-01-26T12:14:41.034Z,42.70
2023-01-26T12:17:32.088Z,43.80
2023-01-26T12:20:36.359Z,46.80
2023-01-26T12:23:56.253Z,44.70
2023-01-26T12:26:39.273Z,48.20
2023-01-26T12:29:33.585Z,51.10
2023-01-26T12:32:20.533Z,51.30
2023-01-26T12:34:54.489Z,51.10
2023-01-26T12:37:38.290Z,49.20
2023-01-26T12:40:35.102Z,53.50
2023-01-26T12:43:31.872Z,55.20
2023-01-26T12:46:04.615Z,48.90
2023-01-26T12:48:47.207Z,51.80
2023-01-26T12:51:44.991Z,55.70
2023-01-26T12:54:40.661Z,48.50
2023-01-26T12:57:22.151Z,48.10
2023-01-26T12:59:52.611Z,44.80
2023-01-26T13:02:36.329Z,51.60
2023-01-26T13:05:34.019Z,48.60
2023-01-26T13:08:34.673Z,51.70
2023-01-26T13:11:09.361Z,52.50
2023-01-26T13:13:57.383Z,57.30
2023-01-26T13:16:47.270Z,60.00
2023-01-26T13:19:43.940Z,49.00
2023-01-26T13:22:22.738Z,51.70
2023-01-26T13:25:32.387Z,45.30
2023-01-26T13:28:04.298Z,47.20
2023-01-26T13:30:44.236Z,55.60
2023-01-26T13:33:25.944Z,42.10
2023-01-26T13:35:56.260Z,44.20
2023-01-26T13:38:40.544Z,55.80
2023-01-26T13:41:21.297Z,53.40
2023-01-26T13:44:05.014Z,55.70
2023-01-26T13:46:57.182Z,52.90
2023-01-26T13:49:49.706Z,56.90
2023-01-26T13:52:27.139Z,53.50
2023-01-26T13:54:58.355Z,56.00
2023-01-26T13:57:31.911Z,55.80
2023-01-26T14:00:01.846Z,58.90
2023-01-26T14:02:38.979Z,54.10
2023-01-26T14:05:24.814Z,63.70
2023-01-26T14:07:58.425Z,72.10
2023-01-26T14:10:28.840Z,63.20
2023-01-26T14:13:02.906Z,60.30
2023-01-26T14:15:38.591Z,57.30
2023-01-26T14:18:22.850Z,54.20
2023-01-26T14:21:01.011Z,60.80
2023-01-26T14:23:37.422Z,69.80
2023-01-26T14:26:22.078Z,69.20
2023-01-26T14:28:51.896Z,64.20
2023-01-26T14:31:26.734Z,65.20
2023-01-26T14:33:59.590Z,64.90
2023-01-26T14:36:42.069Z,63.20
2023-01-26T14:39:21.111Z,58.30
2023-01-26T14:41:50.719Z,62.10
2023-01-26T14:44:20.208Z,62.60
2023-01-26T14:47:06.634Z,59.80
2023-01-26T14:50:12.373Z,69.40
2023-01-26T14:52:46.932Z,70.20
2023-01-26T14:55:28.481Z,83.80
2023-01-26T14:58:01.598Z,93.00
2023-01-26T15:00:37.283Z,86.70
2023-01-26T15:03:58.292Z,123.90
2023-01-26T15:06:37.600Z,72.30
2023-01-26T15:09:29.467Z,69.80
2023-01-26T15:12:19.086Z,66.90
2023-01-26T15:14:55.966Z,69.30
2023-01-26T15:17:42.701Z,71.80
2023-01-26T15:20:15.291Z,63.80
2023-01-26T15:22:53.305Z,65.60
2023-01-26T15:25:32.025Z,66.70
2023-01-26T15:28:02.435Z,64.20
2023-01-26T15:30:40.197Z,64.50
2023-01-26T15:33:41.406Z,72.60
2023-01-26T15:36:51.212Z,64.40
2023-01-26T15:39:22.211Z,64.50
2023-01-26T15:42:14.264Z,69.10
2023-01-26T15:44:44.071Z,67.30
2023-01-26T15:47:15.547Z,67.30
2023-01-26T15:49:45.916Z,67.00
2023-01-26T15:52:26.085Z,70.40
2023-01-26T15:55:02.261Z,71.10
2023-01-26T15:57:32.233Z,68.10
2023-01-26T16:00:02.580Z,69.20
2023-01-26T16:02:36.737Z,69.40
2023-01-26T16:05:21.246Z,73.90
2023-01-26T16:08:20.685Z,81.50
2023-01-26T16:11:29.995Z,83.70
2023-01-26T16:14:15.623Z,90.90
2023-01-26T16:16:53.728Z,83.70
2023-01-26T16:19:36.856Z,75.10
2023-01-26T16:22:18.356Z,73.50
2023-01-26T16:24:54.544Z,83.00
2023-01-26T16:29:55.611Z,74.50
2023-01-26T16:32:32.284Z,74.50
2023-01-26T16:35:21.279Z,73.10
2023-01-26T16:38:01.043Z,66.30
2023-01-26T16:40:34.373Z,66.60
2023-01-26T16:43:18.501Z,75.30
2023-01-26T16:45:52.237Z,74.30
2023-01-26T16:48:35.037Z,87.20
2023-01-26T16:51:26.059Z,83.30
2023-01-26T16:53:57.635Z,90.40
2023-01-26T16:56:35.743Z,85.60
2023-01-26T16:59:13.196Z,84.00
2023-01-26T17:01:43.457Z,87.00
2023-01-26T17:04:13.621Z,86.70
2023-01-26T17:06:48.036Z,92.20
2023-01-26T17:09:39.029Z,100.40
2023-01-26T17:12:14.080Z,100.50
2023-01-26T17:14:52.824Z,109.50
2023-01-26T17:17:34.158Z,92.50
2023-01-26T17:22:50.787Z,86.80
2023-01-26T17:25:20.876Z,85.60
2023-01-26T17:27:56.470Z,87.70
2023-01-26T17:30:38.571Z,89.50
2023-01-26T17:33:10.371Z,100.30
2023-01-26T17:35:43.717Z,94.60
2023-01-26T17:38:25.612Z,88.80
2023-01-26T17:40:59.662Z,90.60
2023-01-26T17:43:44.356Z,94.00
2023-01-26T17:46:47.803Z,91.80
2023-01-26T17:49:40.501Z,97.60
2023-01-26T17:54:53.762Z,82.70
2023-01-26T17:57:24.322Z,86.40
2023-01-26T17:59:55.201Z,86.50
2023-01-26T18:02:29.286Z,91.70
2023-01-26T18:05:18.855Z,96.20
2023-01-26T18:07:52.408Z,98.80
2023-01-26T18:10:35.899Z,97.30
2023-01-26T18:13:17.633Z,106.60
2023-01-26T18:16:14.748Z,103.30
2023-01-26T18:19:36.555Z,89.80
2023-01-26T18:22:22.456Z,91.00
2023-01-26T18:28:57.685Z,91.70
2023-01-26T18:31:43.565Z,89.80
2023-01-26T18:34:23.593Z,100.10
2023-01-26T18:37:02.070Z,92.00
2023-01-26T18:39:40.396Z,139.60
2023-01-26T18:42:10.505Z,105.90
2023-01-26T18:44:52.062Z,85.20
2023-01-26T18:47:31.778Z,87.80
2023-01-26T18:50:04.465Z,93.40
2023-01-26T18:52:35.054Z,94.80
2023-01-26T18:55:14.867Z,91.20
2023-01-26T18:57:55.542Z,87.20
2023-01-26T19:00:41.915Z,86.90
2023-01-26T19:03:35.868Z,92.60
2023-01-26T19:06:16.439Z,84.70
2023-01-26T19:09:04.786Z,85.50
2023-01-26T19:11:47.481Z,79.10
2023-01-26T19:14:19.994Z,80.40
2023-01-26T19:16:55.236Z,76.80
2023-01-26T19:19:27.042Z,80.10
2023-01-26T19:21:56.991Z,83.80
2023-01-26T19:27:10.193Z,84.80
2023-01-26T19:30:14.311Z,84.40
2023-01-26T19:33:15.091Z,81.20
2023-01-26T19:35:50.419Z,87.90
2023-01-26T19:38:25.124Z,81.80
2023-01-26T19:40:54.776Z,86.90
2023-01-26T19:43:50.216Z,84.10
2023-01-26T19:46:47.244Z,88.20
2023-01-26T19:49:31.104Z,91.10
2023-01-26T19:52:32.822Z,91.40
2023-01-26T19:55:08.296Z,92.30
2023-01-26T19:57:45.218Z,98.80
2023-01-26T20:00:22.976Z,96.60
2023-01-26T20:03:02.969Z,98.90
2023-01-26T20:08:45.484Z,111.90
2023-01-26T20:14:13.750Z,103.30
2023-01-26T20:16:47.715Z,112.40
2023-01-26T20:19:28.169Z,111.00
2023-01-26T20:22:02.601Z,108.30
2023-01-26T20:24:34.666Z,124.90
2023-01-26T20:27:13.573Z,114.50
2023-01-26T20:29:53.212Z,100.50
2023-01-26T20:32:27.793Z,104.60
2023-01-26T20:35:11.839Z,102.60
2023-01-26T20:37:44.152Z,101.90
2023-01-26T20:40:22.098Z,103.40
2023-01-26T20:42:57.278Z,107.20
2023-01-26T20:45:29.919Z,108.90
2023-01-26T20:48:01.256Z,108.50
2023-01-26T20:50:41.538Z,106.40
2023-01-26T20:53:22.591Z,115.00
2023-01-26T20:56:00.824Z,117.00
2023-01-26T20:58:30.816Z,114.40
2023-01-26T21:01:21.013Z,112.10
2023-01-26T21:03:53.973Z,106.10
2023-01-26T21:06:29.813Z,114.60
2023-01-26T21:09:01.213Z,123.80
2023-01-26T21:11:35.115Z,123.00
2023-01-26T21:14:12.185Z,135.90
2023-01-26T21:16:45.153Z,120.10
2023-01-26T21:19:18.240Z,114.20
2023-01-26T21:21:53.300Z,116.90
2023-01-26T21:24:59.183Z,115.70
2023-01-26T21:27:40.911Z,120.10
2023-01-26T21:30:31.758Z,123.00
2023-01-26T21:33:05.315Z,100.00
2023-01-26T21:35:38.611Z,100.10
2023-01-26T21:38:13.848Z,100.80
2023-01-26T21:40:51.573Z,101.20
2023-01-26T21:43:25.563Z,103.60
2023-01-26T21:46:02.481Z,103.10
2023-01-26T21:48:39.782Z,95.40
2023-01-26T21:51:30.838Z,100.80
2023-01-26T21:54:04.103Z,103.00
2023-01-26T21:56:43.403Z,96.40
2023-01-26T21:59:21.919Z,88.90
2023-01-26T22:01:57.677Z,90.90
2023-01-26T22:04:31.188Z,96.70
2023-01-26T22:07:01.283Z,96.00
2023-01-26T22:09:39.089Z,97.10
2023-01-26T22:12:30.981Z,95.70
2023-01-26T22:15:03.551Z,98.20
2023-01-26T22:17:38.611Z,96.60
2023-01-26T22:20:19.996Z,93.20
2023-01-26T22:23:00.160Z,100.90
2023-01-26T22:25:33.921Z,94.10
2023-01-26T22:28:09.333Z,101.50
2023-01-26T22:30:45.425Z,103.30
2023-01-26T22:33:18.513Z,104.20
2023-01-26T22:35:50.238Z,101.40
2023-01-26T22:38:24.069Z,106.10
2023-01-26T22:40:58.131Z,103.90
2023-01-26T22:43:29.008Z,113.30
2023-01-26T22:46:12.138Z,106.70
2023-01-26T22:48:42.533Z,103.80
2023-01-26T22:51:18.091Z,110.40
2023-01-26T22:53:57.092Z,114.70
2023-01-26T22:56:38.435Z,112.10
2023-01-26T22:59:18.735Z,113.80
2023-01-26T23:02:08.153Z,106.90
2023-01-26T23:04:43.601Z,107.60
2023-01-26T23:07:28.335Z,109.60
2023-01-26T23:10:12.084Z,106.40
2023-01-26T23:12:51.039Z,107.50
2023-01-26T23:15:37.911Z,109.70
2023-01-26T23:18:18.138Z,114.50
2023-01-26T23:20:54.499Z,112.30
2023-01-26T23:23:39.419Z,116.00
2023-01-26T23:26:13.219Z,115.60
2023-01-26T23:28:45.899Z,114.80
2023-01-26T23:33:52.780Z,109.10
2023-01-26T23:36:28.136Z,110.30
2023-01-26T23:39:06.033Z,113.40
2023-01-26T23:41:41.047Z,110.30
2023-01-26T23:44:16.064Z,112.80
2023-01-26T23:46:51.003Z,106.70
2023-01-26T23:49:24.479Z,109.60
2023-01-26T23:52:02.430Z,107.60
2023-01-26T23:54:32.875Z,106.70
2023-01-26T23:57:09.127Z,111.50
2023-01-26T23:59:54.044Z,111.90
